createdAt,value
2023-03-06T00:02:19.215Z,38.97
2023-03-06T00:04:50.243Z,38.40
2023-03-06T00:07:20.904Z,33.28
2023-03-06T00:09:52.192Z,30.13
2023-03-06T00:12:22.846Z,30.33
2023-03-06T00:14:55.540Z,31.25
2023-03-06T00:17:26.407Z,35.17
2023-03-06T00:19:57.846Z,56.72
2023-03-06T00:22:28.423Z,59.28
2023-03-06T00:24:59.938Z,54.38
2023-03-06T00:27:32.175Z,50.08
2023-03-06T00:30:08.261Z,58.13
2023-03-06T00:32:39.061Z,57.00
2023-03-06T00:35:11.485Z,41.33
2023-03-06T00:37:42.821Z,38.40
2023-03-06T00:40:17.405Z,37.13
2023-03-06T00:42:48.779Z,31.85
2023-03-06T00:45:22.014Z,37.85
2023-03-06T00:47:52.667Z,50.30
2023-03-06T00:50:23.930Z,50.80
2023-03-06T00:52:54.750Z,38.05
2023-03-06T00:55:25.875Z,39.05
2023-03-06T00:57:56.501Z,29.58
2023-03-06T01:00:29.223Z,31.70
2023-03-06T01:03:00.078Z,27.13
2023-03-06T01:05:31.858Z,26.58
2023-03-06T01:08:03.454Z,33.00
2023-03-06T01:10:35.221Z,27.65
2023-03-06T01:13:05.847Z,28.30
2023-03-06T01:15:38.885Z,24.30
2023-03-06T01:18:09.526Z,26.25
2023-03-06T01:20:40.838Z,25.27
2023-03-06T01:23:11.805Z,23.92
2023-03-06T01:25:43.133Z,24.02
2023-03-06T01:28:13.764Z,22.67
2023-03-06T01:30:46.349Z,27.33
2023-03-06T01:33:17.288Z,27.90
2023-03-06T01:35:48.489Z,26.77
2023-03-06T01:38:19.448Z,29.90
2023-03-06T01:40:50.434Z,26.65
2023-03-06T01:43:35.416Z,26.50
2023-03-06T01:46:42.411Z,23.98
2023-03-06T01:49:22.165Z,21.73
2023-03-06T01:51:58.644Z,22.80
2023-03-06T01:54:34.086Z,20.50
2023-03-06T01:57:10.174Z,19.02
2023-03-06T01:59:47.082Z,18.15
2023-03-06T02:02:19.616Z,19.45
2023-03-06T02:04:50.838Z,19.77
2023-03-06T02:07:24.246Z,20.67
2023-03-06T02:09:55.214Z,20.65
2023-03-06T02:14:59.448Z,22.52
2023-03-06T02:17:35.714Z,22.83
2023-03-06T02:20:15.366Z,22.83
2023-03-06T02:22:52.376Z,24.90
2023-03-06T02:25:36.363Z,23.08
2023-03-06T02:28:11.198Z,22.15
2023-03-06T02:30:46.971Z,22.63
2023-03-06T02:33:21.810Z,21.25
2023-03-06T02:35:55.437Z,20.63
2023-03-06T02:38:31.540Z,25.92
2023-03-06T02:41:06.470Z,30.80
2023-03-06T02:43:40.448Z,30.17
2023-03-06T02:46:11.289Z,30.75
2023-03-06T02:48:42.323Z,28.98
2023-03-06T02:51:13.041Z,23.45
2023-03-06T02:53:47.749Z,19.33
2023-03-06T02:56:20.454Z,23.83
2023-03-06T02:58:52.215Z,24.92
2023-03-06T03:01:23.641Z,22.15
2023-03-06T03:03:55.179Z,24.20
2023-03-06T03:06:26.523Z,19.00
2023-03-06T03:08:57.931Z,35.83
2023-03-06T03:11:30.571Z,38.50
2023-03-06T03:14:02.046Z,30.08
2023-03-06T03:16:33.074Z,24.98
2023-03-06T03:19:04.375Z,19.83
2023-03-06T03:21:36.687Z,20.40
2023-03-06T03:24:09.463Z,18.85
2023-03-06T03:26:41.870Z,17.13
2023-03-06T03:29:18.133Z,26.65
2023-03-06T03:31:49.467Z,23.83
2023-03-06T03:34:20.547Z,23.58
2023-03-06T03:36:51.862Z,21.13
2023-03-06T03:39:23.124Z,28.48
2023-03-06T03:41:55.721Z,34.15
2023-03-06T03:44:27.368Z,37.33
2023-03-06T03:46:59.137Z,25.30
2023-03-06T03:49:30.269Z,31.48
2023-03-06T03:52:02.704Z,27.05
2023-03-06T03:54:37.305Z,39.65
2023-03-06T03:57:09.910Z,31.25
2023-03-06T03:59:45.268Z,34.33
2023-03-06T04:02:26.384Z,25.27
2023-03-06T04:05:20.618Z,24.10
2023-03-06T04:07:52.505Z,26.85
2023-03-06T04:10:24.740Z,24.42
2023-03-06T04:12:57.145Z,22.67
2023-03-06T04:15:29.674Z,24.25
2023-03-06T04:18:00.786Z,23.92
2023-03-06T04:20:33.776Z,23.48
2023-03-06T04:23:05.435Z,23.15
2023-03-06T04:25:37.135Z,25.00
2023-03-06T04:28:12.512Z,25.10
2023-03-06T04:30:44.142Z,18.25
2023-03-06T04:33:15.259Z,20.25
2023-03-06T04:35:47.694Z,21.50
2023-03-06T04:38:23.961Z,34.65
2023-03-06T04:40:55.591Z,29.80
2023-03-06T04:43:28.074Z,28.30
2023-03-06T04:46:00.593Z,20.83
2023-03-06T04:48:31.543Z,20.73
2023-03-06T04:51:02.763Z,13.38
2023-03-06T04:53:33.812Z,18.27
2023-03-06T04:56:05.334Z,13.93
2023-03-06T04:58:38.045Z,19.10
2023-03-06T05:01:09.335Z,24.38
2023-03-06T05:03:41.121Z,26.05
2023-03-06T05:06:12.345Z,15.85
2023-03-06T05:08:43.074Z,11.73
2023-03-06T05:11:14.354Z,14.43
2023-03-06T05:13:46.795Z,16.00
2023-03-06T05:16:18.243Z,20.60
2023-03-06T05:18:50.677Z,15.98
2023-03-06T05:21:22.057Z,19.45
2023-03-06T05:23:54.564Z,18.92
2023-03-06T05:26:26.630Z,13.85
2023-03-06T05:28:59.441Z,12.00
2023-03-06T05:31:31.077Z,13.98
2023-03-06T05:34:03.900Z,12.18
2023-03-06T05:36:35.527Z,13.27
2023-03-06T05:39:08.094Z,13.48
2023-03-06T05:41:39.534Z,16.08
2023-03-06T05:44:12.274Z,13.55
2023-03-06T05:49:14.632Z,10.35
2023-03-06T05:51:46.078Z,11.60
2023-03-06T05:54:17.513Z,11.07
2023-03-06T05:56:49.023Z,13.55
2023-03-06T05:59:21.410Z,12.30
2023-03-06T06:01:52.682Z,15.98
2023-03-06T06:04:24.123Z,15.68
2023-03-06T06:06:57.718Z,11.52
2023-03-06T06:09:29.474Z,16.65
2023-03-06T06:12:03.788Z,13.23
2023-03-06T06:14:37.338Z,15.73
2023-03-06T06:17:08.754Z,17.63
2023-03-06T06:19:40.943Z,15.13
2023-03-06T06:22:12.524Z,12.52
2023-03-06T06:24:43.769Z,11.95
2023-03-06T06:27:15.210Z,13.20
2023-03-06T06:29:47.681Z,12.98
2023-03-06T06:32:19.053Z,10.35
2023-03-06T06:34:50.143Z,11.60
2023-03-06T06:37:21.612Z,12.63
2023-03-06T06:39:52.679Z,8.82
2023-03-06T06:42:33.203Z,10.90
2023-03-06T06:45:12.413Z,11.27
2023-03-06T06:47:44.711Z,10.00
2023-03-06T06:50:16.211Z,12.32
2023-03-06T06:52:47.663Z,12.55
2023-03-06T06:55:18.903Z,12.38
2023-03-06T06:57:50.382Z,12.18
2023-03-06T07:00:24.573Z,11.68
2023-03-06T07:02:55.701Z,9.43
2023-03-06T07:05:26.636Z,8.02
2023-03-06T07:07:58.055Z,7.53
2023-03-06T07:10:29.116Z,9.02
2023-03-06T07:13:00.493Z,8.50
2023-03-06T07:15:33.804Z,9.85
2023-03-06T07:18:05.087Z,9.50
2023-03-06T07:20:36.172Z,7.45
2023-03-06T07:23:10.101Z,8.95
2023-03-06T07:25:41.022Z,7.80
2023-03-06T07:28:12.694Z,4.60
2023-03-06T07:30:45.583Z,11.25
2023-03-06T07:33:17.964Z,11.85
2023-03-06T07:35:49.142Z,12.88
2023-03-06T07:38:20.411Z,12.75
2023-03-06T07:40:53.787Z,11.77
2023-03-06T07:43:24.954Z,10.63
2023-03-06T07:46:06.657Z,11.95
2023-03-06T07:48:38.730Z,10.25
2023-03-06T07:51:14.864Z,7.25
2023-03-06T07:53:46.518Z,7.97
2023-03-06T07:56:18.065Z,7.45
2023-03-06T07:58:49.751Z,7.63
2023-03-06T08:01:24.821Z,8.95
2023-03-06T08:03:56.512Z,10.43
2023-03-06T08:06:29.166Z,11.35
2023-03-06T08:09:00.681Z,12.80
2023-03-06T08:11:33.341Z,13.02
2023-03-06T08:14:04.665Z,12.52
2023-03-06T08:16:37.464Z,11.68
2023-03-06T08:19:09.221Z,11.38
2023-03-06T08:21:40.301Z,11.45
2023-03-06T08:24:13.335Z,12.10
2023-03-06T08:26:44.581Z,12.73
2023-03-06T08:29:16.389Z,15.15
2023-03-06T08:31:48.951Z,12.35
2023-03-06T08:34:24.437Z,13.27
2023-03-06T08:36:55.525Z,13.63
2023-03-06T08:39:26.924Z,11.80
2023-03-06T08:41:57.837Z,12.75
2023-03-06T08:44:29.078Z,12.80
2023-03-06T08:47:01.591Z,14.18
2023-03-06T08:49:33.138Z,15.50
2023-03-06T08:52:04.079Z,15.95
2023-03-06T08:54:36.764Z,17.52
2023-03-06T08:57:09.293Z,19.08
2023-03-06T08:59:42.193Z,17.27
2023-03-06T09:02:16.528Z,16.27
2023-03-06T09:04:47.671Z,10.80
2023-03-06T09:07:18.425Z,13.38
2023-03-06T09:09:49.719Z,15.50
2023-03-06T09:12:20.806Z,17.15
2023-03-06T09:14:52.115Z,15.07
2023-03-06T09:17:24.696Z,16.10
2023-03-06T09:19:55.968Z,14.63
2023-03-06T09:22:26.968Z,14.60
2023-03-06T09:24:58.305Z,17.02
2023-03-06T09:27:29.563Z,14.88
2023-03-06T09:30:00.721Z,17.83
2023-03-06T09:32:33.454Z,12.85
2023-03-06T09:35:04.744Z,11.98
2023-03-06T09:37:35.675Z,12.43
2023-03-06T09:40:08.083Z,5.88
2023-03-06T09:42:39.095Z,6.47
2023-03-06T09:45:14.711Z,6.88
2023-03-06T09:47:59.780Z,5.68
2023-03-06T09:50:39.800Z,10.13
2023-03-06T09:53:38.614Z,11.38
2023-03-06T09:56:21.935Z,6.82
2023-03-06T09:59:00.817Z,10.60
2023-03-06T10:01:37.003Z,6.80
2023-03-06T10:04:26.362Z,4.63
2023-03-06T10:07:02.715Z,5.00
2023-03-06T10:09:47.940Z,4.97
2023-03-06T10:12:25.811Z,8.40
2023-03-06T10:15:16.683Z,5.75
2023-03-06T10:17:48.828Z,6.80
2023-03-06T10:20:26.959Z,5.82
2023-03-06T10:23:26.641Z,6.82
2023-03-06T10:26:03.816Z,8.82
2023-03-06T10:28:43.346Z,6.35
2023-03-06T10:31:22.134Z,5.63
2023-03-06T10:33:57.168Z,5.75
2023-03-06T10:36:30.848Z,7.45
2023-03-06T10:39:06.101Z,8.48
2023-03-06T10:41:38.451Z,5.30
2023-03-06T10:44:29.977Z,3.90
2023-03-06T10:47:01.045Z,6.00
2023-03-06T10:49:36.101Z,4.97
2023-03-06T10:52:23.075Z,5.70
2023-03-06T10:54:54.443Z,7.20
2023-03-06T10:57:29.990Z,4.88
2023-03-06T11:00:04.829Z,5.40
2023-03-06T11:02:38.774Z,5.47
2023-03-06T11:05:21.860Z,4.60
2023-03-06T11:08:00.615Z,6.13
2023-03-06T11:10:35.612Z,4.72
2023-03-06T11:13:20.671Z,6.18
2023-03-06T11:16:01.039Z,3.60
2023-03-06T11:18:38.352Z,4.63
2023-03-06T11:21:31.841Z,6.03
2023-03-06T11:24:16.276Z,5.13
2023-03-06T11:26:52.184Z,4.43
2023-03-06T11:29:43.448Z,5.63
2023-03-06T11:32:20.902Z,4.32
2023-03-06T11:34:56.593Z,9.75
2023-03-06T11:37:41.962Z,5.00
2023-03-06T11:40:23.972Z,4.65
2023-03-06T11:43:04.491Z,5.00
2023-03-06T11:45:43.883Z,8.73
2023-03-06T11:48:26.291Z,4.65
2023-03-06T11:51:06.611Z,4.22
2023-03-06T11:53:40.907Z,6.13
2023-03-06T11:56:33.013Z,5.82
2023-03-06T11:59:47.380Z,5.75
2023-03-06T12:02:34.731Z,6.93
2023-03-06T12:05:28.194Z,9.38
2023-03-06T12:08:16.352Z,7.18
2023-03-06T12:10:52.302Z,5.53
2023-03-06T12:16:49.255Z,6.18
2023-03-06T12:19:38.186Z,5.07
2023-03-06T12:22:39.871Z,6.35
2023-03-06T12:25:35.614Z,5.00
2023-03-06T12:28:37.141Z,7.20
2023-03-06T12:31:33.907Z,4.80
2023-03-06T12:34:21.775Z,9.65
2023-03-06T12:37:12.781Z,7.43
2023-03-06T12:40:29.400Z,7.95
2023-03-06T12:43:40.048Z,8.63
2023-03-06T12:46:18.167Z,9.90
2023-03-06T12:49:04.927Z,6.63
2023-03-06T12:51:39.864Z,5.90
2023-03-06T12:54:16.400Z,7.35
2023-03-06T12:56:51.329Z,4.93
2023-03-06T12:59:44.527Z,9.15
2023-03-06T13:03:05.824Z,9.18
2023-03-06T13:06:08.135Z,8.02
2023-03-06T13:09:25.339Z,4.22
2023-03-06T13:12:20.769Z,5.63
2023-03-06T13:14:59.403Z,4.55
2023-03-06T13:17:41.171Z,5.20
2023-03-06T13:20:39.919Z,6.00
2023-03-06T13:23:53.553Z,6.35
2023-03-06T13:26:52.993Z,5.20
2023-03-06T13:30:22.669Z,7.60
2023-03-06T13:32:55.011Z,6.25
2023-03-06T13:35:57.630Z,4.93
2023-03-06T13:38:36.879Z,5.90
2023-03-06T13:41:59.741Z,10.95
2023-03-06T13:44:51.202Z,8.82
2023-03-06T13:50:48.228Z,12.25
2023-03-06T13:54:02.841Z,8.05
2023-03-06T13:57:23.412Z,5.60
2023-03-06T14:00:48.381Z,10.68
2023-03-06T14:04:15.377Z,9.18
2023-03-06T14:07:20.326Z,11.27
2023-03-06T14:10:18.088Z,13.20
2023-03-06T14:13:04.530Z,14.27
2023-03-06T14:15:45.310Z,29.90
2023-03-06T14:18:21.801Z,31.48
2023-03-06T14:20:59.925Z,27.70
2023-03-06T14:23:35.660Z,24.02
2023-03-06T14:26:17.889Z,25.70
2023-03-06T14:28:58.746Z,32.45
2023-03-06T14:31:34.335Z,34.63
2023-03-06T14:34:08.265Z,29.17
2023-03-06T14:36:47.860Z,25.95
2023-03-06T14:39:24.381Z,24.85
2023-03-06T14:42:08.699Z,22.40
2023-03-06T14:44:39.856Z,20.92
2023-03-06T14:47:27.684Z,19.23
2023-03-06T14:50:24.571Z,19.50
2023-03-06T14:52:59.229Z,21.48
2023-03-06T14:55:34.502Z,18.27
2023-03-06T14:58:15.645Z,20.38
2023-03-06T15:00:51.325Z,21.75
2023-03-06T15:03:28.805Z,19.33
2023-03-06T15:05:59.961Z,19.77
2023-03-06T15:08:36.170Z,17.10
2023-03-06T15:11:08.864Z,18.60
2023-03-06T15:13:41.997Z,17.55
2023-03-06T15:16:30.362Z,17.67
2023-03-06T15:19:05.710Z,17.27
2023-03-06T15:21:39.413Z,20.02
2023-03-06T15:24:33.594Z,21.55
2023-03-06T15:27:06.517Z,16.95
2023-03-06T15:29:41.479Z,16.80
2023-03-06T15:32:29.519Z,22.48
2023-03-06T15:35:32.135Z,20.83
2023-03-06T15:38:04.327Z,25.98
2023-03-06T15:40:35.815Z,20.00
2023-03-06T15:43:12.524Z,25.48
2023-03-06T15:45:45.233Z,24.33
2023-03-06T15:48:19.589Z,29.20
2023-03-06T15:50:51.071Z,29.60
2023-03-06T15:53:21.860Z,31.88
2023-03-06T15:55:54.089Z,30.83
2023-03-06T15:58:26.960Z,30.85
2023-03-06T16:00:59.699Z,28.27
2023-03-06T16:03:30.694Z,29.27
2023-03-06T16:06:02.073Z,28.65
2023-03-06T16:08:33.127Z,27.85
2023-03-06T16:11:04.752Z,28.45
2023-03-06T16:13:36.291Z,30.05
2023-03-06T16:16:17.394Z,30.23
2023-03-06T16:18:48.350Z,33.42
2023-03-06T16:21:20.082Z,30.33
2023-03-06T16:23:50.907Z,30.63
2023-03-06T16:26:29.402Z,31.40
2023-03-06T16:29:00.407Z,28.92
2023-03-06T16:31:33.741Z,31.48
2023-03-06T16:34:04.654Z,31.75
2023-03-06T16:36:36.817Z,32.13
2023-03-06T16:39:13.244Z,32.33
2023-03-06T16:41:46.236Z,34.20
2023-03-06T16:44:17.734Z,35.55
2023-03-06T16:46:51.898Z,33.88
2023-03-06T16:49:26.598Z,33.20
2023-03-06T16:51:57.893Z,33.58
2023-03-06T16:54:28.834Z,34.22
2023-03-06T16:57:00.367Z,33.80
2023-03-06T16:59:32.909Z,37.00
2023-03-06T17:02:07.794Z,37.17
2023-03-06T17:04:39.721Z,36.28
2023-03-06T17:07:11.263Z,38.05
2023-03-06T17:09:41.957Z,39.28
2023-03-06T17:12:13.383Z,40.75
2023-03-06T17:14:45.583Z,48.75
2023-03-06T17:17:18.248Z,39.75
2023-03-06T17:19:49.833Z,43.13
2023-03-06T17:22:21.939Z,38.25
2023-03-06T17:24:52.951Z,41.30
2023-03-06T17:27:25.613Z,38.25
2023-03-06T17:29:59.400Z,39.92
2023-03-06T17:32:33.161Z,38.97
2023-03-06T17:37:35.552Z,38.50
2023-03-06T17:40:11.731Z,39.83
2023-03-06T17:42:43.510Z,40.42
2023-03-06T17:45:15.169Z,40.08
2023-03-06T17:47:49.176Z,38.75
2023-03-06T17:50:21.179Z,38.05
2023-03-06T17:52:52.497Z,37.10
2023-03-06T17:55:23.705Z,35.60
2023-03-06T17:57:55.248Z,31.58
2023-03-06T18:00:26.998Z,30.83
2023-03-06T18:03:00.446Z,29.95
2023-03-06T18:05:31.774Z,33.47
2023-03-06T18:08:03.796Z,43.67
2023-03-06T18:10:35.590Z,44.45
2023-03-06T18:13:07.764Z,42.43
2023-03-06T18:15:41.706Z,47.28
2023-03-06T18:18:17.438Z,49.38
2023-03-06T18:20:48.853Z,51.42
2023-03-06T18:23:20.346Z,49.33
2023-03-06T18:25:52.056Z,50.60
2023-03-06T18:28:23.697Z,53.87
2023-03-06T18:30:54.677Z,58.45
2023-03-06T18:33:28.051Z,46.65
2023-03-06T18:36:02.425Z,42.20
2023-03-06T18:38:34.443Z,40.20
2023-03-06T18:41:09.079Z,38.60
2023-03-06T18:43:41.553Z,33.50
2023-03-06T18:46:13.080Z,30.70
2023-03-06T18:48:46.778Z,32.22
2023-03-06T18:51:19.794Z,32.13
2023-03-06T18:53:51.591Z,32.90
2023-03-06T18:56:23.861Z,37.22
2023-03-06T18:58:55.333Z,42.23
2023-03-06T19:01:27.047Z,40.15
2023-03-06T19:04:02.481Z,36.53
2023-03-06T19:06:33.579Z,37.38
2023-03-06T19:09:05.031Z,47.47
2023-03-06T19:11:36.229Z,40.38
2023-03-06T19:14:07.833Z,38.60
2023-03-06T19:16:39.034Z,32.17
2023-03-06T19:19:11.877Z,34.25
2023-03-06T19:21:42.658Z,34.58
2023-03-06T19:24:14.334Z,34.33
2023-03-06T19:26:45.489Z,34.92
2023-03-06T19:29:16.909Z,49.53
2023-03-06T19:31:47.734Z,43.08
2023-03-06T19:34:20.675Z,33.22
2023-03-06T19:36:52.650Z,39.17
2023-03-06T19:39:24.514Z,45.03
2023-03-06T19:41:55.379Z,36.75
2023-03-06T19:44:26.649Z,32.88
2023-03-06T19:46:57.764Z,32.75
2023-03-06T19:49:30.492Z,29.42
2023-03-06T19:52:04.332Z,29.48
2023-03-06T19:54:35.459Z,30.02
2023-03-06T19:57:06.443Z,32.40
2023-03-06T19:59:37.716Z,31.83
2023-03-06T20:02:08.614Z,33.15
2023-03-06T20:04:41.477Z,35.90
2023-03-06T20:07:12.318Z,34.38
2023-03-06T20:09:43.650Z,33.03
2023-03-06T20:12:14.849Z,31.45
2023-03-06T20:14:47.503Z,33.80
2023-03-06T20:17:18.368Z,33.53
2023-03-06T20:19:51.043Z,36.25
2023-03-06T20:22:22.427Z,34.72
2023-03-06T20:24:54.345Z,36.03
2023-03-06T20:27:25.443Z,40.13
2023-03-06T20:29:57.203Z,40.75
2023-03-06T20:32:28.962Z,40.20
2023-03-06T20:35:02.587Z,40.67
2023-03-06T20:37:33.631Z,39.88
2023-03-06T20:40:06.525Z,31.65
2023-03-06T20:42:37.593Z,29.23
2023-03-06T20:45:10.990Z,30.52
2023-03-06T20:47:47.486Z,31.90
2023-03-06T20:50:20.862Z,25.92
2023-03-06T20:52:54.676Z,23.48
2023-03-06T20:55:26.713Z,22.92
2023-03-06T20:57:57.984Z,21.80
2023-03-06T21:00:29.626Z,20.52
2023-03-06T21:03:01.261Z,21.75
2023-03-06T21:05:34.736Z,21.10
2023-03-06T21:08:05.521Z,20.55
2023-03-06T21:10:38.677Z,18.60
2023-03-06T21:13:10.330Z,17.60
2023-03-06T21:15:43.591Z,22.75
2023-03-06T21:18:14.699Z,24.15
2023-03-06T21:20:47.711Z,22.77
2023-03-06T21:23:18.821Z,22.77
2023-03-06T21:25:50.970Z,20.38
2023-03-06T21:28:21.937Z,21.98
2023-03-06T21:30:53.616Z,23.17
2023-03-06T21:33:24.810Z,23.85
2023-03-06T21:35:58.160Z,23.30
2023-03-06T21:38:30.507Z,28.38
2023-03-06T21:41:10.434Z,28.38
2023-03-06T21:43:41.811Z,27.10
2023-03-06T21:46:14.485Z,28.55
2023-03-06T21:48:45.322Z,27.25
2023-03-06T21:51:20.938Z,26.40
2023-03-06T21:53:54.933Z,25.75
2023-03-06T21:56:28.556Z,28.38
2023-03-06T21:59:00.155Z,29.15
2023-03-06T22:01:31.996Z,28.42
2023-03-06T22:04:02.859Z,27.38
2023-03-06T22:06:35.727Z,27.15
2023-03-06T22:09:07.293Z,26.30
2023-03-06T22:11:40.010Z,25.05
2023-03-06T22:14:11.291Z,25.00
2023-03-06T22:16:43.033Z,25.88
2023-03-06T22:19:14.165Z,23.42
2023-03-06T22:21:47.082Z,23.10
2023-03-06T22:24:18.605Z,21.88
2023-03-06T22:26:50.155Z,20.83
2023-03-06T22:29:21.376Z,20.98
2023-03-06T22:31:53.416Z,20.58
2023-03-06T22:34:24.570Z,21.70
2023-03-06T22:36:57.633Z,19.75
2023-03-06T22:39:29.492Z,21.13
2023-03-06T22:42:01.538Z,21.63
2023-03-06T22:44:32.717Z,22.17
2023-03-06T22:47:04.062Z,22.48
2023-03-06T22:49:35.176Z,22.95
2023-03-06T22:52:09.211Z,25.00
2023-03-06T22:54:40.401Z,23.55
2023-03-06T22:57:11.703Z,24.15
2023-03-06T22:59:42.942Z,23.90
2023-03-06T23:02:14.408Z,28.23
2023-03-06T23:04:45.924Z,25.48
2023-03-06T23:07:19.494Z,21.73
2023-03-06T23:09:51.440Z,24.52
2023-03-06T23:12:44.203Z,22.10
2023-03-06T23:15:34.902Z,21.77
2023-03-06T23:18:25.004Z,24.05
2023-03-06T23:21:17.362Z,22.25
2023-03-06T23:24:09.513Z,27.58
2023-03-06T23:26:40.913Z,31.50
2023-03-06T23:29:12.694Z,32.47
2023-03-06T23:31:43.880Z,34.58
2023-03-06T23:34:15.033Z,37.42
2023-03-06T23:36:46.190Z,36.42
2023-03-06T23:39:19.066Z,35.97
2023-03-06T23:41:50.259Z,36.40
2023-03-06T23:44:21.682Z,38.10
2023-03-06T23:46:52.693Z,36.17
2023-03-06T23:49:24.167Z,35.53
2023-03-06T23:51:55.056Z,35.35
2023-03-06T23:54:27.627Z,35.42
2023-03-06T23:56:58.373Z,35.70
2023-03-06T23:59:29.479Z,37.85
